Time;durP1;ratioP1;P1;durP2;ratioP2;P2;SDS_P1;SDS_P2;PMS_P1;PMS_P2;Temp;Humidity;BMP_temperature;BMP_pressure;BME280_temperature;BME280_humidity;BME280_pressure;Samples;Min_cycle;Max_cycle;Signal;HPM_P1;HPM_P2
2022/05/10 00:01:19;;;;;;;;;;;;;;;19.83;100.00;98509.78;4951059;28;19936;-82
2022/05/10 00:03:46;;;;;;;;;;;;;;;19.84;100.00;98516.00;4958049;28;20504;-83
2022/05/10 00:06:13;;;;;;;;;;;;;;;19.81;100.00;98522.03;4959648;28;19926;-80
2022/05/10 00:08:40;;;;;;;;;;;;;;;19.74;100.00;98524.38;4930574;29;19927;-78
2022/05/10 00:11:06;;;;;;;;;;;;;;;19.73;100.00;98520.88;4959101;28;19926;-81
2022/05/10 00:13:32;;;;;;;;;;;;;;;19.75;100.00;98513.22;4943097;28;19973;-79
2022/05/10 00:15:59;;;;;;;;;;;;;;;19.69;100.00;98508.22;4952249;28;19948;-80
2022/05/10 00:18:28;;;;;;;;;;;;;;;19.71;100.00;98506.03;4940618;28;19926;-80
2022/05/10 00:20:55;;;;;;;;;;;;;;;19.62;100.00;98514.06;4941707;29;19937;-81
2022/05/10 00:23:22;;;;;;;;;;;;;;;19.65;100.00;98512.69;4924562;29;19933;-80
2022/05/10 00:25:48;;;;;;;;;;;;;;;19.61;100.00;98511.69;4924909;28;19933;-80
2022/05/10 00:28:14;;;;;;;;;;;;;;;19.60;100.00;98516.31;4932712;28;20076;-81
2022/05/10 00:30:41;;;;;;;;;;;;;;;19.53;100.00;98520.56;4949618;28;19930;-79
2022/05/10 00:33:07;;;;;;;;;;;;;;;19.54;100.00;98512.13;4947462;28;19927;-81
2022/05/10 00:35:34;;;;;;;;;;;;;;;19.57;100.00;98502.56;4952593;28;19937;-80
2022/05/10 00:38:03;;;;;;;;;;;;;;;19.55;100.00;98507.50;4950295;28;19926;-79
2022/05/10 00:40:31;;;;;;;;;;;;;;;19.52;100.00;98510.81;4955709;28;19931;-81
2022/05/10 00:43:01;;;;;;;;;;;;;;;19.53;100.00;98507.00;4957285;28;19930;-80
2022/05/10 00:45:32;;;;;;;;;;;;;;;19.46;100.00;98503.91;4952713;28;19978;-82
2022/05/10 00:48:04;;;;;;;;;;;;;;;19.42;100.00;98494.78;4959671;28;19926;-80
2022/05/10 00:50:49;;;;;;;;;;;;;;;19.46;100.00;98498.50;4949587;28;20412;-80
2022/05/10 00:53:21;;;;;;;;;;;;;;;19.45;100.00;98486.84;4942910;28;19980;-79
2022/05/10 00:55:50;;;;;;;;;;;;;;;19.47;100.00;98495.47;4952756;28;19930;-80
2022/05/10 00:58:21;;;;;;;;;;;;;;;19.42;100.00;98497.50;4952781;28;19937;-79
2022/05/10 01:00:47;;;;;;;;;;;;;;;19.40;100.00;98495.13;4950841;28;19930;-80
2022/05/10 01:03:17;;;;;;;;;;;;;;;19.37;100.00;98485.63;4952967;28;20290;-78
2022/05/10 01:05:47;;;;;;;;;;;;;;;19.36;100.00;98492.19;4952425;28;19936;-79
2022/05/10 01:08:15;;;;;;;;;;;;;;;19.34;100.00;98491.66;4940781;28;20474;-78
2022/05/10 01:10:45;;;;;;;;;;;;;;;19.32;100.00;98490.38;4948922;28;19939;-79
2022/05/10 01:13:17;;;;;;;;;;;;;;;19.32;100.00;98493.09;4959061;28;19932;-79
2022/05/10 01:15:47;;;;;;;;;;;;;;;19.26;100.00;98497.81;4947113;28;19930;-80
2022/05/10 01:18:13;;;;;;;;;;;;;;;19.22;100.00;98493.31;4955706;28;19933;-79
2022/05/10 01:20:42;;;;;;;;;;;;;;;19.13;100.00;98495.94;4952520;28;19937;-80
2022/05/10 01:23:18;;;;;;;;;;;;;;;19.05;100.00;98496.66;4951022;28;19926;-80
2022/05/10 01:25:53;;;;;;;;;;;;;;;19.02;100.00;98493.75;4948999;28;19926;-80
2022/05/10 01:28:24;;;;;;;;;;;;;;;18.75;100.00;98500.00;4956826;28;19930;-79
2022/05/10 01:30:51;;;;;;;;;;;;;;;18.77;100.00;98500.50;4951709;28;19930;-80
2022/05/10 01:33:29;;;;;;;;;;;;;;;18.77;100.00;98497.78;4949187;28;19933;-80
2022/05/10 01:35:59;;;;;;;;;;;;;;;18.65;100.00;98492.09;4949085;28;20137;-80
2022/05/10 01:38:28;;;;;;;;;;;;;;;18.72;100.00;98493.28;4945040;28;19926;-81
2022/05/10 01:40:58;;;;;;;;;;;;;;;18.81;100.00;98493.41;4980049;28;19941;-79
2022/05/10 01:43:28;;;;;;;;;;;;;;;18.90;100.00;98497.00;4953862;28;20036;-80
2022/05/10 01:45:56;;;;;;;;;;;;;;;18.92;100.00;98497.47;4952722;28;20581;-81
2022/05/10 01:48:22;;;;;;;;;;;;;;;18.95;100.00;98505.00;4955674;28;20443;-80
2022/05/10 01:50:51;;;;;;;;;;;;;;;18.94;100.00;98495.25;4923758;29;20682;-79
2022/05/10 01:53:19;;;;;;;;;;;;;;;18.84;100.00;98499.00;4942464;28;20513;-79
2022/05/10 01:55:47;;;;;;;;;;;;;;;18.78;100.00;98499.41;4945138;28;19949;-80
2022/05/10 01:58:14;;;;;;;;;;;;;;;18.85;100.00;98491.66;4932762;28;20461;-80
2022/05/10 02:00:44;;;;;;;;;;;;;;;18.83;100.00;98494.69;4950122;28;19930;-80
2022/05/10 02:03:13;;;;;;;;;;;;;;;18.72;100.00;98495.19;4939418;28;19934;-80
2022/05/10 02:05:45;;;;;;;;;;;;;;;18.75;100.00;98502.72;4949259;28;19937;-79
2022/05/10 02:08:15;;;;;;;;;;;;;;;18.73;100.00;98507.59;4949833;28;20005;-79
2022/05/10 02:10:45;;;;;;;;;;;;;;;18.76;100.00;98498.88;4954408;28;19957;-79
2022/05/10 02:13:14;;;;;;;;;;;;;;;18.71;100.00;98491.69;4950489;28;19926;-79
2022/05/10 02:15:44;;;;;;;;;;;;;;;18.75;100.00;98489.97;4951893;28;20121;-79
2022/05/10 02:18:14;;;;;;;;;;;;;;;18.72;100.00;98492.50;4944752;28;19936;-80
2022/05/10 02:20:43;;;;;;;;;;;;;;;18.73;100.00;98491.38;4936858;28;19946;-81
2022/05/10 02:23:11;;;;;;;;;;;;;;;18.77;100.00;98495.09;4931403;29;19937;-80
2022/05/10 02:25:39;;;;;;;;;;;;;;;18.70;100.00;98491.97;4958988;28;19934;-80
2022/05/10 02:28:09;;;;;;;;;;;;;;;18.70;100.00;98494.69;4939205;28;20341;-81
2022/05/10 02:30:36;;;;;;;;;;;;;;;18.69;100.00;98487.69;4966221;28;19973;-79
2022/05/10 02:33:08;;;;;;;;;;;;;;;18.68;100.00;98484.19;4960198;28;19930;-80
2022/05/10 02:35:38;;;;;;;;;;;;;;;18.65;100.00;98479.38;4940359;28;19929;-79
2022/05/10 02:38:05;;;;;;;;;;;;;;;18.65;100.00;98481.25;4940138;28;19988;-80
2022/05/10 02:40:32;;;;;;;;;;;;;;;18.67;100.00;98485.28;4962162;28;19930;-79
2022/05/10 02:42:58;;;;;;;;;;;;;;;18.68;100.00;98477.97;4955036;28;19930;-79
2022/05/10 02:45:24;;;;;;;;;;;;;;;18.62;100.00;98485.38;4957072;28;19937;-79
2022/05/10 02:47:51;;;;;;;;;;;;;;;18.68;100.00;98467.13;4959315;28;19927;-80
2022/05/10 02:50:22;;;;;;;;;;;;;;;18.64;100.00;98476.94;4964731;28;19946;-80
2022/05/10 02:52:48;;;;;;;;;;;;;;;18.59;100.00;98471.66;4954177;28;19926;-79
2022/05/10 02:55:17;;;;;;;;;;;;;;;18.63;100.00;98480.78;4959892;28;19957;-79
2022/05/10 02:57:46;;;;;;;;;;;;;;;18.51;100.00;98469.63;4954085;28;20609;-79
2022/05/10 03:00:13;;;;;;;;;;;;;;;18.50;100.00;98476.16;4954462;28;19964;-79
2022/05/10 03:02:42;;;;;;;;;;;;;;;18.50;100.00;98466.16;4955510;28;19936;-80
2022/05/10 03:05:09;;;;;;;;;;;;;;;18.49;100.00;98477.22;4959095;28;19927;-79
2022/05/10 03:07:38;;;;;;;;;;;;;;;18.39;100.00;98474.72;4954016;28;19941;-79
2022/05/10 03:10:05;;;;;;;;;;;;;;;18.45;100.00;98473.50;4955941;28;19995;-79
2022/05/10 03:12:31;;;;;;;;;;;;;;;18.47;100.00;98471.31;4958888;28;19987;-80
2022/05/10 03:14:58;;;;;;;;;;;;;;;18.41;100.00;98477.94;4939897;29;19927;-80
2022/05/10 03:17:26;;;;;;;;;;;;;;;18.44;100.00;98480.03;4931018;28;22350;-80
2022/05/10 03:19:53;;;;;;;;;;;;;;;18.43;100.00;98483.84;4939826;28;19926;-80
2022/05/10 03:22:19;;;;;;;;;;;;;;;18.47;100.00;98495.66;4953807;28;19930;-80
2022/05/10 03:24:47;;;;;;;;;;;;;;;18.45;100.00;98482.44;4940791;29;19926;-80
2022/05/10 03:27:13;;;;;;;;;;;;;;;18.42;100.00;98480.31;4960302;28;19932;-79
2022/05/10 03:29:40;;;;;;;;;;;;;;;18.34;100.00;98492.66;4947479;28;19929;-80
2022/05/10 03:32:06;;;;;;;;;;;;;;;18.38;100.00;98489.34;4961838;28;19933;-79
2022/05/10 03:37:16;;;;;;;;;;;;;;;18.38;100.00;98484.75;4942235;28;20106;-80
2022/05/10 03:39:43;;;;;;;;;;;;;;;18.37;100.00;98476.91;4957844;28;19938;-79
2022/05/10 03:42:11;;;;;;;;;;;;;;;18.33;100.00;98474.81;4950549;28;19930;-80
2022/05/10 03:44:37;;;;;;;;;;;;;;;18.25;100.00;98480.13;4959554;28;20286;-80
2022/05/10 03:47:04;;;;;;;;;;;;;;;18.26;100.00;98466.28;4950802;28;20071;-79
2022/05/10 03:49:31;;;;;;;;;;;;;;;18.26;100.00;98470.88;4946548;28;19930;-79
2022/05/10 03:51:57;;;;;;;;;;;;;;;18.25;100.00;98477.41;4937572;28;19930;-79
2022/05/10 03:54:24;;;;;;;;;;;;;;;18.27;100.00;98477.91;4931164;28;20204;-79
2022/05/10 03:56:51;;;;;;;;;;;;;;;18.27;100.00;98484.13;4929183;28;19926;-80
2022/05/10 03:59:19;;;;;;;;;;;;;;;18.21;100.00;98474.50;4954318;28;20196;-82
2022/05/10 04:01:46;;;;;;;;;;;;;;;18.19;100.00;98476.72;4951148;28;19926;-79
2022/05/10 04:04:12;;;;;;;;;;;;;;;18.17;100.00;98473.47;4965651;28;19926;-80
2022/05/10 04:06:38;;;;;;;;;;;;;;;18.17;100.00;98486.19;4954594;28;20135;-80
2022/05/10 04:09:05;;;;;;;;;;;;;;;18.18;100.00;98480.50;4958908;28;19930;-80
2022/05/10 04:11:31;;;;;;;;;;;;;;;18.20;100.00;98483.69;4945101;28;20304;-81
2022/05/10 04:13:58;;;;;;;;;;;;;;;18.20;100.00;98481.00;4949439;28;19931;-80
2022/05/10 04:16:26;;;;;;;;;;;;;;;18.21;100.00;98489.91;4951256;28;19945;-80
2022/05/10 04:18:52;;;;;;;;;;;;;;;18.20;100.00;98483.69;4953561;28;19926;-80
2022/05/10 04:21:18;;;;;;;;;;;;;;;18.14;100.00;98484.91;4934878;28;19926;-79
2022/05/10 04:23:45;;;;;;;;;;;;;;;17.87;100.00;98484.84;4950078;28;19926;-80
2022/05/10 04:26:12;;;;;;;;;;;;;;;17.74;100.00;98475.59;4956893;28;19926;-80
2022/05/10 04:28:39;;;;;;;;;;;;;;;17.84;100.00;98473.81;4953287;28;20456;-79
2022/05/10 04:31:06;;;;;;;;;;;;;;;17.82;100.00;98486.81;4933415;28;19957;-81
2022/05/10 04:33:33;;;;;;;;;;;;;;;17.88;100.00;98470.25;4950242;28;19941;-79
2022/05/10 04:36:00;;;;;;;;;;;;;;;17.90;100.00;98486.13;4957942;28;19926;-80
2022/05/10 04:38:54;;;;;;;;;;;;;;;17.99;100.00;98476.25;4951103;28;19926;-79
2022/05/10 04:41:25;;;;;;;;;;;;;;;18.01;100.00;98474.06;4939729;28;20020;-79
2022/05/10 04:43:52;;;;;;;;;;;;;;;17.99;100.00;98470.84;4951044;28;19926;-79
2022/05/10 04:46:18;;;;;;;;;;;;;;;18.05;100.00;98480.47;4948352;28;20198;-80
2022/05/10 04:48:46;;;;;;;;;;;;;;;17.88;100.00;98491.84;4946305;28;19962;-80
2022/05/10 04:51:12;;;;;;;;;;;;;;;17.93;100.00;98491.75;4950197;28;20025;-79
2022/05/10 04:53:39;;;;;;;;;;;;;;;17.63;100.00;98497.66;4934404;28;19926;-80
2022/05/10 04:56:05;;;;;;;;;;;;;;;16.80;100.00;98495.56;4950730;28;20013;-79
2022/05/10 04:58:32;;;;;;;;;;;;;;;16.32;100.00;98499.31;4950377;28;19973;-81
2022/05/10 05:01:02;;;;;;;;;;;;;;;16.60;100.00;98490.41;4956411;28;19973;-79
2022/05/10 05:03:28;;;;;;;;;;;;;;;17.10;100.00;98507.84;4991904;28;20447;-80
2022/05/10 05:05:56;;;;;;;;;;;;;;;17.34;100.00;98507.78;4938367;28;20033;-80
2022/05/10 05:08:22;;;;;;;;;;;;;;;17.38;100.00;98514.22;4947982;28;20521;-79
2022/05/10 05:10:49;;;;;;;;;;;;;;;17.57;100.00;98502.34;4953710;28;20333;-79
2022/05/10 05:13:15;;;;;;;;;;;;;;;17.63;100.00;98511.16;4956738;28;20024;-80
2022/05/10 05:15:41;;;;;;;;;;;;;;;17.55;100.00;98509.94;4945584;28;19930;-79
2022/05/10 05:18:09;;;;;;;;;;;;;;;17.01;100.00;98509.59;4945541;28;19952;-79
2022/05/10 05:20:35;;;;;;;;;;;;;;;16.86;100.00;98507.91;4947669;28;19930;-79
2022/05/10 05:23:08;;;;;;;;;;;;;;;16.69;100.00;98512.94;4950561;28;19933;-80
2022/05/10 05:25:35;;;;;;;;;;;;;;;16.49;100.00;98516.66;4946444;28;19926;-80
2022/05/10 05:28:01;;;;;;;;;;;;;;;16.20;100.00;98514.00;4946574;28;19938;-80
2022/05/10 05:30:28;;;;;;;;;;;;;;;16.10;100.00;98506.00;4944670;28;20081;-81
2022/05/10 05:32:54;;;;;;;;;;;;;;;16.13;100.00;98505.44;4951866;28;19930;-80
2022/05/10 05:35:20;;;;;;;;;;;;;;;16.38;100.00;98512.47;4950320;28;19931;-80
2022/05/10 05:37:47;;;;;;;;;;;;;;;16.84;100.00;98520.84;4949692;28;20074;-80
2022/05/10 05:40:15;;;;;;;;;;;;;;;16.88;100.00;98513.81;4951495;28;19930;-81
2022/05/10 05:42:42;;;;;;;;;;;;;;;17.27;100.00;98514.34;4950453;28;20157;-80
2022/05/10 05:45:09;;;;;;;;;;;;;;;17.72;100.00;98510.22;4949109;28;19927;-80
2022/05/10 05:47:36;;;;;;;;;;;;;;;18.06;100.00;98512.63;4944215;28;20548;-80
2022/05/10 05:50:03;;;;;;;;;;;;;;;18.32;100.00;98508.34;4957760;28;20053;-81
2022/05/10 05:52:29;;;;;;;;;;;;;;;18.47;100.00;98507.28;4928294;28;19933;-81
2022/05/10 05:54:55;;;;;;;;;;;;;;;18.63;100.00;98497.00;4953807;28;19934;-79
2022/05/10 05:57:24;;;;;;;;;;;;;;;18.51;100.00;98500.19;4942173;28;19934;-81
2022/05/10 05:59:53;;;;;;;;;;;;;;;18.61;100.00;98504.59;4931286;28;19987;-79
2022/05/10 06:02:20;;;;;;;;;;;;;;;18.88;100.00;98509.22;4961113;28;19964;-80
2022/05/10 06:04:47;;;;;;;;;;;;;;;19.03;100.00;98507.00;4948924;28;19931;-79
2022/05/10 06:07:13;;;;;;;;;;;;;;;19.23;100.00;98503.03;4945993;28;19937;-79
2022/05/10 06:09:40;;;;;;;;;;;;;;;19.33;100.00;98510.94;4947756;28;19926;-80
2022/05/10 06:12:08;;;;;;;;;;;;;;;19.45;100.00;98508.53;5024058;28;19930;-77
2022/05/10 06:14:36;;;;;;;;;;;;;;;19.45;100.00;98507.72;4943870;28;20364;-80
2022/05/10 06:17:02;;;;;;;;;;;;;;;19.57;100.00;98495.25;4946174;28;20120;-79
2022/05/10 06:19:29;;;;;;;;;;;;;;;19.50;100.00;98496.75;4946310;28;19926;-79
2022/05/10 06:21:56;;;;;;;;;;;;;;;19.52;100.00;98497.28;4929100;29;20495;-81
2022/05/10 06:24:22;;;;;;;;;;;;;;;19.75;100.00;98496.16;4948640;28;19937;-79
2022/05/10 06:26:49;;;;;;;;;;;;;;;19.86;100.00;98502.97;4946869;28;19931;-80
2022/05/10 06:29:15;;;;;;;;;;;;;;;19.98;100.00;98492.34;4951641;28;19930;-79
2022/05/10 06:31:43;;;;;;;;;;;;;;;20.18;100.00;98494.53;4954571;28;19971;-80
2022/05/10 06:34:10;;;;;;;;;;;;;;;20.33;100.00;98491.44;4953953;28;19994;-79
2022/05/10 06:36:37;;;;;;;;;;;;;;;20.43;99.91;98496.59;4945861;28;20399;-79
2022/05/10 06:39:04;;;;;;;;;;;;;;;20.48;99.23;98484.81;4945381;28;20021;-79
2022/05/10 06:41:31;;;;;;;;;;;;;;;20.53;99.15;98494.72;4949543;28;19969;-79
2022/05/10 06:43:57;;;;;;;;;;;;;;;20.21;99.59;98487.69;4957497;28;19930;-80
2022/05/10 06:46:24;;;;;;;;;;;;;;;20.09;100.00;98490.16;4951569;28;19933;-80
2022/05/10 06:48:51;;;;;;;;;;;;;;;19.97;100.00;98488.03;4945944;28;20017;-80
2022/05/10 06:51:19;;;;;;;;;;;;;;;19.91;100.00;98483.84;4931219;28;20021;-79
2022/05/10 06:53:45;;;;;;;;;;;;;;;19.57;100.00;98489.00;4946088;28;20041;-80
2022/05/10 06:56:15;;;;;;;;;;;;;;;19.40;100.00;98490.47;4948380;28;19932;-79
2022/05/10 06:58:42;;;;;;;;;;;;;;;19.28;100.00;98487.47;4945907;28;19976;-79
2022/05/10 07:01:11;;;;;;;;;;;;;;;19.27;100.00;98485.88;4953382;28;19926;-80
2022/05/10 07:03:39;;;;;;;;;;;;;;;19.37;100.00;98482.16;4951648;28;19926;-79
2022/05/10 07:06:08;;;;;;;;;;;;;;;20.00;100.00;98476.56;5038271;28;19957;-79
2022/05/10 07:08:34;;;;;;;;;;;;;;;20.36;100.00;98479.97;4955404;28;19927;-79
2022/05/10 07:11:01;;;;;;;;;;;;;;;20.63;100.00;98473.53;4949522;28;20016;-80
2022/05/10 07:13:28;;;;;;;;;;;;;;;20.19;100.00;98471.72;4955532;28;20387;-79
2022/05/10 07:15:55;;;;;;;;;;;;;;;19.68;100.00;98474.13;4935987;29;20709;-79
2022/05/10 07:18:22;;;;;;;;;;;;;;;19.38;100.00;98481.03;4930240;28;20082;-79
2022/05/10 07:20:49;;;;;;;;;;;;;;;18.98;100.00;98479.22;4946647;28;20413;-77
2022/05/10 07:23:19;;;;;;;;;;;;;;;18.80;100.00;98475.53;4961308;28;20016;-78
2022/05/10 07:25:46;;;;;;;;;;;;;;;18.65;100.00;98475.84;4960966;28;19932;-79
2022/05/10 07:28:40;;;;;;;;;;;;;;;18.61;100.00;98478.34;4962420;28;20368;-80
2022/05/10 07:31:06;;;;;;;;;;;;;;;19.09;100.00;98473.31;4954246;28;20033;-79
2022/05/10 07:33:33;;;;;;;;;;;;;;;19.63;100.00;98477.75;4951924;28;19940;-79
2022/05/10 07:38:44;;;;;;;;;;;;;;;19.26;100.00;98476.16;4948812;28;19926;-79
2022/05/10 07:41:12;;;;;;;;;;;;;;;19.51;100.00;98474.00;4949708;28;20014;-79
2022/05/10 07:43:38;;;;;;;;;;;;;;;19.19;100.00;98475.75;4959860;28;19929;-79
2022/05/10 07:46:05;;;;;;;;;;;;;;;19.32;100.00;98482.25;4950788;28;19930;-80
2022/05/10 07:48:32;;;;;;;;;;;;;;;19.25;100.00;98473.72;4952573;28;19926;-79
2022/05/10 07:50:58;;;;;;;;;;;;;;;19.26;100.00;98478.06;4943530;28;20021;-78
2022/05/10 07:53:25;;;;;;;;;;;;;;;19.11;100.00;98475.69;4950658;28;19933;-78
2022/05/10 07:55:52;;;;;;;;;;;;;;;19.08;100.00;98477.09;4955154;28;20025;-79
2022/05/10 07:58:19;;;;;;;;;;;;;;;19.16;100.00;98470.97;4944150;28;19926;-79
2022/05/10 08:00:45;;;;;;;;;;;;;;;19.32;100.00;98482.25;4931380;28;20020;-79
2022/05/10 08:03:13;;;;;;;;;;;;;;;19.27;100.00;98485.09;4956396;28;19993;-79
2022/05/10 08:05:39;;;;;;;;;;;;;;;19.31;100.00;98484.16;4948331;28;19937;-79
2022/05/10 08:08:06;;;;;;;;;;;;;;;19.43;100.00;98472.84;4948075;28;19930;-77
2022/05/10 08:10:32;;;;;;;;;;;;;;;19.44;100.00;98474.41;4940494;29;19978;-79
2022/05/10 08:13:00;;;;;;;;;;;;;;;19.24;100.00;98483.78;4956871;28;19982;-81
2022/05/10 08:15:26;;;;;;;;;;;;;;;19.42;100.00;98482.06;4940661;28;20009;-80
2022/05/10 08:17:53;;;;;;;;;;;;;;;19.44;100.00;98479.03;4922428;28;19940;-80
2022/05/10 08:20:19;;;;;;;;;;;;;;;19.52;100.00;98470.19;4949010;28;19938;-78
2022/05/10 08:22:46;;;;;;;;;;;;;;;19.68;100.00;98474.13;4958949;28;19930;-79
2022/05/10 08:25:13;;;;;;;;;;;;;;;19.50;100.00;98475.09;4945962;28;20030;-78
2022/05/10 08:27:39;;;;;;;;;;;;;;;19.62;100.00;98475.38;4952374;28;19930;-78
2022/05/10 08:30:08;;;;;;;;;;;;;;;19.60;100.00;98467.53;4942590;28;20020;-79
2022/05/10 08:32:34;;;;;;;;;;;;;;;19.53;100.00;98471.78;4955661;28;19966;-79
2022/05/10 08:35:01;;;;;;;;;;;;;;;20.02;100.00;98466.22;4959270;28;20022;-81
2022/05/10 08:37:27;;;;;;;;;;;;;;;19.93;100.00;98468.06;4940276;28;20444;-84
2022/05/10 08:39:53;;;;;;;;;;;;;;;19.83;100.00;98471.03;4953014;28;19977;-83
2022/05/10 08:42:22;;;;;;;;;;;;;;;19.68;100.00;98471.44;4960581;28;19926;-86
2022/05/10 08:44:52;;;;;;;;;;;;;;;19.70;100.00;98467.28;4978137;28;20661;-84
2022/05/10 08:47:20;;;;;;;;;;;;;;;19.74;100.00;98475.59;4980438;28;20027;-84
2022/05/10 08:49:49;;;;;;;;;;;;;;;19.84;100.00;98470.72;4993301;28;19926;-84
2022/05/10 08:52:16;;;;;;;;;;;;;;;19.99;100.00;98474.19;4983747;28;19934;-83
2022/05/10 08:54:43;;;;;;;;;;;;;;;19.98;100.00;98467.94;5031715;28;20019;-84
2022/05/10 08:57:15;;;;;;;;;;;;;;;19.99;100.00;98463.34;4994356;28;19975;-84
2022/05/10 08:59:44;;;;;;;;;;;;;;;20.21;100.00;98461.34;4970411;28;19965;-82
2022/05/10 09:02:13;;;;;;;;;;;;;;;20.61;100.00;98459.47;4996078;28;20027;-85
2022/05/10 09:04:45;;;;;;;;;;;;;;;20.66;100.00;98462.06;4957540;28;19926;-86
2022/05/10 09:07:14;;;;;;;;;;;;;;;20.59;100.00;98450.84;4958701;28;19930;-82
2022/05/10 09:09:47;;;;;;;;;;;;;;;20.50;100.00;98452.72;4935581;28;20017;-83
2022/05/10 09:12:16;;;;;;;;;;;;;;;20.43;100.00;98460.53;4957466;28;20147;-86
2022/05/10 09:14:48;;;;;;;;;;;;;;;20.47;100.00;98453.38;4962627;28;19968;-84
2022/05/10 09:17:16;;;;;;;;;;;;;;;20.62;100.00;98443.97;4977335;28;20031;-85
2022/05/10 09:19:44;;;;;;;;;;;;;;;20.70;100.00;98446.75;4992627;28;19990;-85
2022/05/10 09:22:16;;;;;;;;;;;;;;;20.87;100.00;98445.97;4972613;28;20192;-87
2022/05/10 09:24:48;;;;;;;;;;;;;;;20.95;100.00;98450.63;4996795;28;19924;-83
2022/05/10 09:27:14;;;;;;;;;;;;;;;21.23;100.00;98445.72;4970430;28;20041;-83
2022/05/10 09:29:44;;;;;;;;;;;;;;;21.68;100.00;98444.25;4967516;28;19937;-84
2022/05/10 09:34:59;;;;;;;;;;;;;;;21.50;99.77;98440.78;4959097;28;19940;-84
2022/05/10 09:37:27;;;;;;;;;;;;;;;21.92;98.91;98439.13;4991656;28;19926;-83
2022/05/10 09:40:05;;;;;;;;;;;;;;;22.21;97.61;98432.97;5012713;28;19927;-85
2022/05/10 09:42:33;;;;;;;;;;;;;;;22.24;94.83;98428.78;4950547;28;19972;-83
2022/05/10 09:45:01;;;;;;;;;;;;;;;22.23;94.49;98429.91;4961352;28;19969;-82
2022/05/10 09:47:27;;;;;;;;;;;;;;;22.30;97.34;98428.28;4959963;28;20504;-86
2022/05/10 09:49:54;;;;;;;;;;;;;;;22.34;96.01;98429.22;4939192;28;20051;-83
2022/05/10 09:52:24;;;;;;;;;;;;;;;22.58;93.77;98415.00;4942324;28;20114;-83
2022/05/10 09:54:53;;;;;;;;;;;;;;;22.22;96.18;98431.03;4950706;28;19926;-84
2022/05/10 09:57:26;;;;;;;;;;;;;;;21.86;97.16;98426.00;4941197;28;19930;-85
2022/05/10 09:59:53;;;;;;;;;;;;;;;22.07;98.85;98424.19;4941310;28;20741;-83
2022/05/10 10:02:27;;;;;;;;;;;;;;;22.01;97.72;98422.78;4949943;28;20402;-85
2022/05/10 10:04:53;;;;;;;;;;;;;;;21.89;93.77;98428.09;4937522;28;20035;-84
2022/05/10 10:07:22;;;;;;;;;;;;;;;21.98;95.32;98420.69;4949637;28;20031;-85
2022/05/10 10:09:51;;;;;;;;;;;;;;;22.10;94.57;98418.09;4957090;28;20450;-83
2022/05/10 10:12:31;;;;;;;;;;;;;;;22.08;94.05;98404.03;4949276;28;19937;-84
2022/05/10 10:14:58;;;;;;;;;;;;;;;22.08;94.41;98408.69;4958331;28;19927;-83
2022/05/10 10:17:27;;;;;;;;;;;;;;;22.04;94.90;98408.53;4946022;28;20006;-86
2022/05/10 10:19:58;;;;;;;;;;;;;;;22.03;95.75;98407.72;4960226;28;20100;-83
2022/05/10 10:22:30;;;;;;;;;;;;;;;22.06;93.43;98403.56;4954227;28;19944;-84
2022/05/10 10:25:02;;;;;;;;;;;;;;;22.05;93.41;98402.78;4949106;28;19983;-83
2022/05/10 10:27:33;;;;;;;;;;;;;;;22.08;90.89;98405.94;4933132;28;19927;-84
2022/05/10 10:30:02;;;;;;;;;;;;;;;22.14;92.85;98404.66;4941415;28;19926;-85
2022/05/10 10:32:33;;;;;;;;;;;;;;;22.37;92.70;98393.19;4958631;28;19927;-83
2022/05/10 10:35:02;;;;;;;;;;;;;;;22.48;92.49;98391.69;4962179;28;19926;-84
2022/05/10 10:37:33;;;;;;;;;;;;;;;22.62;91.56;98394.19;4953057;28;19934;-84
2022/05/10 10:40:11;;;;;;;;;;;;;;;22.90;91.62;98391.78;4937197;29;19969;-83
2022/05/10 10:42:40;;;;;;;;;;;;;;;23.00;87.37;98388.63;4924654;29;19954;-84
2022/05/10 10:45:12;;;;;;;;;;;;;;;22.70;88.83;98381.66;4930210;28;19981;-83
2022/05/10 10:47:41;;;;;;;;;;;;;;;22.93;88.37;98385.69;4953017;28;20021;-84
2022/05/10 10:50:11;;;;;;;;;;;;;;;22.88;90.12;98377.69;4935731;28;20033;-84
2022/05/10 10:52:37;;;;;;;;;;;;;;;23.09;85.45;98382.00;4951112;28;19930;-84
2022/05/10 10:55:07;;;;;;;;;;;;;;;23.14;78.32;98378.28;4953318;28;19972;-84
2022/05/10 10:57:52;;;;;;;;;;;;;;;22.96;83.76;98374.88;4950975;28;19926;-85
2022/05/10 11:00:19;;;;;;;;;;;;;;;23.35;85.38;98368.16;4950149;28;20010;-84
2022/05/10 11:03:07;;;;;;;;;;;;;;;23.35;73.55;98370.09;4960079;28;19940;-84
2022/05/10 11:05:59;;;;;;;;;;;;;;;23.35;74.96;98361.91;4929224;28;19926;-83
2022/05/10 11:08:35;;;;;;;;;;;;;;;23.31;79.93;98361.78;4942487;28;19926;-84
2022/05/10 11:11:06;;;;;;;;;;;;;;;23.12;77.94;98356.81;4963630;28;20177;-83
2022/05/10 11:13:43;;;;;;;;;;;;;;;23.52;76.51;98357.09;4930721;29;20481;-84
2022/05/10 11:16:18;;;;;;;;;;;;;;;23.25;75.95;98354.94;4953252;28;19930;-85
2022/05/10 11:18:53;;;;;;;;;;;;;;;23.27;79.07;98341.78;4937128;28;19933;-84
2022/05/10 11:21:24;;;;;;;;;;;;;;;23.32;76.26;98344.31;4962997;28;20427;-85
2022/05/10 11:23:58;;;;;;;;;;;;;;;23.28;75.24;98342.56;4933997;28;20453;-83
2022/05/10 11:26:33;;;;;;;;;;;;;;;23.43;73.30;98340.03;4950777;28;20425;-84
2022/05/10 11:29:14;;;;;;;;;;;;;;;23.48;73.14;98339.03;4933627;28;19934;-82
2022/05/10 11:31:48;;;;;;;;;;;;;;;23.35;77.52;98331.91;4966218;28;19938;-84
2022/05/10 11:34:23;;;;;;;;;;;;;;;23.56;78.93;98328.03;4945902;28;20440;-83
2022/05/10 11:36:50;;;;;;;;;;;;;;;23.67;80.70;98330.34;4933430;28;19926;-83
2022/05/10 11:39:37;;;;;;;;;;;;;;;23.65;68.58;98322.47;4964233;28;19926;-84
2022/05/10 11:42:18;;;;;;;;;;;;;;;23.43;69.72;98323.69;4949147;28;19973;-84
2022/05/10 11:44:58;;;;;;;;;;;;;;;23.57;73.77;98312.47;4950737;28;19937;-84
2022/05/10 11:47:52;;;;;;;;;;;;;;;23.74;71.59;98304.09;4944817;28;19941;-83
2022/05/10 11:50:26;;;;;;;;;;;;;;;23.84;70.30;98300.13;4946254;28;20088;-83
2022/05/10 11:53:08;;;;;;;;;;;;;;;23.76;69.03;98301.03;4948035;28;19934;-82
2022/05/10 11:55:36;;;;;;;;;;;;;;;23.82;69.31;98299.69;4943134;29;19931;-84
2022/05/10 11:58:05;;;;;;;;;;;;;;;23.90;72.91;98298.75;4956304;28;19988;-85
2022/05/10 12:00:50;;;;;;;;;;;;;;;24.21;69.69;98298.22;4952381;28;19936;-84
2022/05/10 12:03:31;;;;;;;;;;;;;;;24.03;73.94;98294.91;4953083;28;19926;-84
2022/05/10 12:06:21;;;;;;;;;;;;;;;23.92;75.79;98285.59;4953147;28;19937;-85
2022/05/10 12:08:47;;;;;;;;;;;;;;;24.13;68.08;98289.03;4942293;28;19926;-84
2022/05/10 12:11:33;;;;;;;;;;;;;;;24.14;71.56;98285.16;4950371;28;19977;-85
2022/05/10 12:22:50;;;;;;;;;;;;;;;24.12;61.23;98279.25;4949722;28;19938;-84
2022/05/10 12:25:32;;;;;;;;;;;;;;;24.09;61.23;98267.06;4958404;28;19934;-84
2022/05/10 12:28:00;;;;;;;;;;;;;;;24.07;59.84;98266.63;4927474;28;20624;-84
2022/05/10 12:30:32;;;;;;;;;;;;;;;23.93;61.30;98270.81;4931341;28;19974;-84
2022/05/10 12:32:59;;;;;;;;;;;;;;;23.91;63.37;98262.97;4950116;28;19933;-84
2022/05/10 12:35:52;;;;;;;;;;;;;;;24.17;60.24;98265.34;4958641;28;19927;-84
2022/05/10 12:38:33;;;;;;;;;;;;;;;24.17;59.93;98257.16;4958463;28;19938;-83
2022/05/10 12:41:05;;;;;;;;;;;;;;;24.25;59.41;98252.72;4960010;28;19931;-84
2022/05/10 12:43:49;;;;;;;;;;;;;;;24.24;59.65;98257.41;4946617;28;19939;-83
2022/05/10 12:46:22;;;;;;;;;;;;;;;24.28;59.04;98249.31;4949557;28;19934;-83
2022/05/10 12:48:58;;;;;;;;;;;;;;;24.44;60.66;98242.81;4932623;28;20424;-83
2022/05/10 12:51:32;;;;;;;;;;;;;;;24.13;63.22;98242.63;4947130;28;19930;-84
2022/05/10 12:54:00;;;;;;;;;;;;;;;24.48;63.27;98246.41;4946336;28;19932;-83
2022/05/10 12:56:27;;;;;;;;;;;;;;;24.73;59.83;98235.44;4949237;28;19926;-83
2022/05/10 12:58:55;;;;;;;;;;;;;;;24.88;57.57;98229.25;4953280;28;19930;-84
2022/05/10 13:01:24;;;;;;;;;;;;;;;24.69;57.23;98224.41;4944627;28;20450;-84
2022/05/10 13:03:59;;;;;;;;;;;;;;;24.65;60.96;98227.03;4950594;28;20413;-83
2022/05/10 13:06:33;;;;;;;;;;;;;;;24.62;62.63;98221.47;4949167;28;20095;-84
2022/05/10 13:09:04;;;;;;;;;;;;;;;24.84;58.06;98220.16;4950027;28;19926;-83